CYMU

Umiujaq Airport

Umiujaq, Quebec, Canada
METAR CYMU 251800Z 18008KT 15SM SCT140 BKN260 M07/M09 A3000 RMK AC4CS3 HALO SLP167
Observed Flight Rules
Apr-25 @ 18:00 UTC (12 minutes ago) Visual Flight Rules
Wind Visibility Clouds
180° at 8 knots 15 miles
  • Scattered at 14,000' AGL
  • Broken at 26,000' AGL
Temperatures Readings
Current -7°C / 19°F
Dewpoint -9°C / 16°F
Humidity 86%
Altimeter 30" Hg
Pressure 1016.7 hPa
Elevation 71
METAR CYMU 251800Z 18008KT 15SM SCT140 BKN260 M07/M09 A3000 RMK AC4CS3 HALO SLP167
Observed Flight Rules
Apr-25 @ 18:00 UTC
(12 minutes ago)
VFR
Wind Visibility
180° at 8 knots 15 miles
Clouds
  • Scattered at 14,000' AGL
  • Broken at 26,000' AGL
Temperature Dewpoint
-7°C / 19°F -9°C / 16°F
Humidity Altimeter Pressure
86% 30" Hg 1016.7 hPa